createdAt,value
2018-08-20T00:00:04.052Z,3.20
2018-08-20T00:02:34.456Z,3.90
2018-08-20T00:05:05.647Z,3.40
2018-08-20T00:07:36.035Z,3.73
2018-08-20T00:10:06.434Z,3.43
2018-08-20T00:12:36.851Z,3.57
2018-08-20T00:15:07.237Z,3.73
2018-08-20T00:17:37.624Z,3.27
2018-08-20T00:20:08.045Z,3.50
2018-08-20T00:22:38.450Z,3.37
2018-08-20T00:25:08.843Z,3.37
2018-08-20T00:27:39.270Z,3.27
2018-08-20T00:30:09.678Z,3.20
2018-08-20T00:32:40.843Z,3.23
2018-08-20T00:35:11.310Z,3.27
2018-08-20T00:37:41.695Z,3.20
2018-08-20T00:40:12.093Z,3.80
2018-08-20T00:42:43.317Z,2.93
2018-08-20T00:45:15.744Z,3.30
2018-08-20T00:47:46.460Z,3.03
2018-08-20T00:50:17.636Z,3.37
2018-08-20T00:52:55.205Z,3.10
2018-08-20T00:55:25.635Z,3.57
2018-08-20T00:57:56.030Z,3.33
2018-08-20T01:00:26.411Z,3.07
2018-08-20T01:03:00.847Z,3.07
2018-08-20T01:05:31.249Z,3.30
2018-08-20T01:08:03.676Z,3.17
2018-08-20T01:10:34.073Z,3.23
2018-08-20T01:13:04.460Z,3.00
2018-08-20T01:15:34.853Z,3.43
2018-08-20T01:18:05.265Z,3.07
2018-08-20T01:20:35.670Z,2.93
2018-08-20T01:23:06.079Z,2.80
2018-08-20T01:25:36.520Z,2.70
2018-08-20T01:28:06.922Z,3.10
2018-08-20T01:30:37.311Z,3.10
2018-08-20T01:33:07.742Z,3.13
2018-08-20T01:35:38.129Z,3.20
2018-08-20T01:38:12.628Z,2.60
2018-08-20T01:40:43.055Z,3.10
2018-08-20T01:43:13.451Z,3.10
2018-08-20T01:45:44.610Z,2.93
2018-08-20T01:48:15.733Z,3.20
2018-08-20T01:50:46.311Z,2.70
2018-08-20T01:53:16.700Z,2.87
2018-08-20T01:55:47.878Z,3.17
2018-08-20T01:58:18.282Z,2.77
2018-08-20T02:00:49.382Z,2.43
2018-08-20T02:03:19.809Z,2.70
2018-08-20T02:05:50.201Z,2.37
2018-08-20T02:08:20.590Z,3.27
2018-08-20T02:10:51.013Z,2.77
2018-08-20T02:13:21.413Z,2.83
2018-08-20T02:15:53.848Z,3.00
2018-08-20T02:18:24.271Z,3.10
2018-08-20T02:20:54.664Z,2.63
2018-08-20T02:23:25.069Z,2.90
2018-08-20T02:25:57.535Z,3.07
2018-08-20T02:28:27.937Z,3.00
2018-08-20T02:30:58.323Z,3.17
2018-08-20T02:33:28.736Z,2.70
2018-08-20T02:38:43.888Z,3.20
2018-08-20T02:41:14.267Z,2.93
2018-08-20T02:43:44.649Z,2.87
2018-08-20T02:46:19.162Z,2.73
2018-08-20T02:48:49.538Z,2.93
2018-08-20T02:51:19.947Z,2.87
2018-08-20T02:53:50.442Z,2.20
2018-08-20T02:56:20.768Z,2.40
2018-08-20T02:58:51.170Z,2.93
2018-08-20T03:01:21.618Z,2.30
2018-08-20T03:03:52.241Z,2.50
2018-08-20T03:06:22.626Z,2.60
2018-08-20T03:08:53.056Z,2.60
2018-08-20T03:11:23.443Z,2.57
2018-08-20T03:13:54.739Z,2.53
2018-08-20T03:16:25.256Z,2.00
2018-08-20T03:18:55.542Z,2.20
2018-08-20T03:21:25.920Z,2.60
2018-08-20T03:23:56.335Z,2.60
2018-08-20T03:26:26.732Z,2.53
2018-08-20T03:29:04.410Z,2.63
2018-08-20T03:31:34.812Z,2.73
2018-08-20T03:34:05.980Z,2.77
2018-08-20T03:36:36.330Z,2.37
2018-08-20T03:39:08.700Z,2.60
2018-08-20T03:41:39.072Z,2.50
2018-08-20T03:44:10.249Z,2.13
2018-08-20T03:46:40.628Z,2.60
2018-08-20T03:49:11.017Z,1.97
2018-08-20T03:51:41.450Z,2.37
2018-08-20T03:54:11.857Z,2.60
2018-08-20T03:56:42.258Z,2.60
2018-08-20T03:59:13.446Z,2.13
2018-08-20T04:01:47.938Z,2.50
2018-08-20T04:04:18.581Z,1.90
2018-08-20T04:06:48.983Z,2.30
2018-08-20T04:09:20.143Z,2.70
2018-08-20T04:11:50.544Z,2.33
2018-08-20T04:14:20.960Z,2.00
2018-08-20T04:16:51.353Z,2.20
2018-08-20T04:19:21.675Z,2.03
2018-08-20T04:21:52.089Z,1.90
2018-08-20T04:24:22.409Z,2.30
2018-08-20T04:26:52.791Z,2.20
2018-08-20T04:29:23.235Z,2.20
2018-08-20T04:31:54.612Z,2.10
2018-08-20T04:34:24.993Z,2.67
2018-08-20T04:36:55.414Z,1.90
2018-08-20T04:39:25.824Z,1.83
2018-08-20T04:42:17.689Z,2.00
2018-08-20T04:45:08.179Z,2.50
2018-08-20T04:47:38.609Z,2.10
2018-08-20T04:50:09.182Z,1.87
2018-08-20T04:52:58.801Z,2.20
2018-08-20T04:55:29.115Z,2.57
2018-08-20T04:57:59.508Z,2.90
2018-08-20T05:00:29.879Z,2.10
2018-08-20T05:03:00.278Z,2.63
2018-08-20T05:05:31.689Z,2.63
2018-08-20T05:08:02.867Z,2.83
2018-08-20T05:10:33.496Z,2.50
2018-08-20T05:13:03.914Z,2.50
2018-08-20T05:15:34.547Z,2.33
2018-08-20T05:18:04.927Z,2.27
2018-08-20T05:20:35.311Z,2.47
2018-08-20T05:23:05.727Z,2.47
2018-08-20T05:25:36.110Z,2.67
2018-08-20T05:28:06.510Z,2.40
2018-08-20T05:30:58.354Z,2.60
2018-08-20T05:33:28.753Z,2.37
2018-08-20T05:36:01.200Z,2.50
2018-08-20T05:38:32.378Z,2.17
2018-08-20T05:41:06.796Z,2.47
2018-08-20T05:43:39.271Z,2.27
2018-08-20T05:46:09.664Z,2.60
2018-08-20T05:48:40.069Z,2.43
2018-08-20T05:51:10.509Z,2.30
2018-08-20T05:53:41.597Z,2.00
2018-08-20T05:56:14.048Z,1.87
2018-08-20T05:58:44.477Z,1.67
2018-08-20T06:01:14.882Z,1.83
2018-08-20T06:03:46.033Z,1.90
2018-08-20T06:06:17.221Z,1.47
2018-08-20T06:08:47.621Z,1.50
2018-08-20T06:11:18.004Z,1.87
2018-08-20T06:13:48.423Z,1.60
2018-08-20T06:16:18.810Z,1.80
2018-08-20T06:18:49.212Z,1.40
2018-08-20T06:21:20.398Z,1.97
2018-08-20T06:23:50.795Z,1.97
2018-08-20T06:26:21.182Z,2.23
2018-08-20T06:28:51.602Z,2.17
2018-08-20T06:31:21.927Z,1.77
2018-08-20T06:33:52.622Z,1.83
2018-08-20T06:36:23.055Z,2.00
2018-08-20T06:38:53.435Z,1.77
2018-08-20T06:41:23.823Z,2.20
2018-08-20T06:43:54.243Z,1.97
2018-08-20T06:46:27.698Z,1.80
2018-08-20T06:48:58.084Z,1.80
2018-08-20T06:51:28.510Z,1.70
2018-08-20T06:54:02.921Z,1.50
2018-08-20T06:56:53.669Z,1.70
2018-08-20T07:02:11.393Z,1.60
2018-08-20T07:04:41.719Z,1.83
2018-08-20T07:07:12.106Z,1.97
2018-08-20T07:09:42.526Z,1.30
2018-08-20T07:12:12.919Z,1.67
2018-08-20T07:14:43.319Z,1.80
2018-08-20T07:17:13.712Z,1.93
2018-08-20T07:19:44.125Z,1.70
2018-08-20T07:22:15.288Z,1.70
2018-08-20T07:24:45.645Z,1.87
2018-08-20T07:27:16.024Z,1.60
2018-08-20T07:29:46.402Z,2.10
2018-08-20T07:32:17.846Z,1.97
2018-08-20T07:34:48.170Z,2.13
2018-08-20T07:37:38.780Z,2.20
2018-08-20T07:40:09.795Z,3.00
2018-08-20T07:42:40.199Z,1.93
2018-08-20T07:45:10.617Z,1.67
2018-08-20T07:47:41.763Z,2.20
2018-08-20T07:50:12.168Z,2.77
2018-08-20T07:52:42.591Z,2.50
2018-08-20T07:55:12.984Z,2.80
2018-08-20T07:57:45.435Z,2.70
2018-08-20T08:00:16.511Z,2.77
2018-08-20T08:02:46.891Z,2.63
2018-08-20T08:05:17.273Z,2.83
2018-08-20T08:07:47.627Z,2.90
2018-08-20T08:10:18.785Z,2.70
2018-08-20T08:12:49.115Z,2.83
2018-08-20T08:15:19.556Z,2.83
2018-08-20T08:17:49.964Z,1.90
2018-08-20T08:20:20.356Z,3.00
2018-08-20T08:22:50.782Z,2.77
2018-08-20T08:25:21.183Z,2.50
2018-08-20T08:27:51.593Z,2.73
2018-08-20T08:30:23.025Z,3.10
2018-08-20T08:32:54.186Z,3.00
2018-08-20T08:35:24.595Z,2.97
2018-08-20T08:37:55.743Z,2.73
2018-08-20T08:40:26.114Z,2.77
2018-08-20T08:42:56.492Z,3.07
2018-08-20T08:45:26.916Z,2.50
2018-08-20T08:47:58.064Z,2.90
2018-08-20T08:50:28.449Z,2.53
2018-08-20T08:52:58.886Z,2.40
2018-08-20T08:55:29.264Z,2.20
2018-08-20T08:57:59.644Z,2.27
2018-08-20T09:00:32.251Z,2.33
2018-08-20T09:03:22.988Z,2.43
2018-08-20T09:05:53.410Z,2.80
2018-08-20T09:08:23.803Z,2.80
2018-08-20T09:10:54.966Z,2.87
2018-08-20T09:13:25.389Z,2.57
2018-08-20T09:15:55.776Z,3.17
2018-08-20T09:18:26.156Z,2.37
2018-08-20T09:20:58.814Z,3.07
2018-08-20T09:23:29.206Z,2.70
2018-08-20T09:25:59.611Z,2.83
2018-08-20T09:28:30.030Z,2.73
2018-08-20T09:31:00.415Z,2.93
2018-08-20T09:33:30.736Z,2.63
2018-08-20T09:36:01.927Z,2.73
2018-08-20T09:38:54.487Z,2.90
2018-08-20T09:41:24.892Z,3.10
2018-08-20T09:43:55.405Z,3.20
2018-08-20T09:46:26.437Z,3.17
2018-08-20T09:48:56.852Z,2.90
2018-08-20T09:51:27.191Z,2.80
2018-08-20T09:53:57.603Z,2.53
2018-08-20T09:56:28.797Z,2.27
2018-08-20T09:59:18.307Z,2.97
2018-08-20T10:01:48.712Z,2.13
2018-08-20T10:04:19.050Z,2.77
2018-08-20T10:06:49.435Z,2.70
2018-08-20T10:09:21.897Z,2.90
2018-08-20T10:11:52.299Z,2.90
2018-08-20T10:14:23.462Z,2.93
2018-08-20T10:16:53.872Z,2.70
2018-08-20T10:19:25.033Z,2.63
2018-08-20T10:21:55.419Z,2.67
2018-08-20T10:24:25.863Z,3.00
2018-08-20T10:26:57.259Z,2.87
2018-08-20T10:29:27.651Z,2.40
2018-08-20T10:31:59.155Z,2.10
2018-08-20T10:34:29.523Z,2.20
2018-08-20T10:37:00.687Z,1.97
2018-08-20T10:39:31.856Z,2.20
2018-08-20T10:42:02.253Z,2.03
2018-08-20T10:44:32.642Z,2.37
2018-08-20T10:47:03.089Z,2.03
2018-08-20T10:49:54.886Z,1.97
2018-08-20T10:52:25.272Z,1.90
2018-08-20T10:54:55.592Z,1.60
2018-08-20T10:57:26.182Z,1.70
2018-08-20T10:59:56.680Z,2.00
2018-08-20T11:02:31.379Z,1.90
2018-08-20T11:05:01.926Z,1.87
2018-08-20T11:07:32.332Z,1.80
2018-08-20T11:10:03.485Z,1.83
2018-08-20T11:12:33.815Z,1.70
2018-08-20T11:15:04.232Z,1.90
2018-08-20T11:17:34.630Z,1.77
2018-08-20T11:22:58.655Z,1.37
2018-08-20T11:25:29.806Z,1.73
2018-08-20T11:28:00.197Z,1.20
2018-08-20T11:30:30.555Z,1.60
2018-08-20T11:33:00.872Z,2.10
2018-08-20T11:35:32.037Z,1.57
2018-08-20T11:38:02.531Z,1.60
2018-08-20T11:40:32.863Z,1.90
2018-08-20T11:43:04.035Z,1.33
2018-08-20T11:45:34.453Z,1.80
2018-08-20T11:48:04.846Z,1.80
2018-08-20T11:50:35.179Z,1.50
2018-08-20T11:53:05.613Z,1.97
2018-08-20T11:55:36.760Z,1.70
2018-08-20T11:58:07.913Z,1.60
2018-08-20T12:00:38.335Z,1.63
2018-08-20T12:03:09.487Z,1.47
2018-08-20T12:05:39.804Z,1.37
2018-08-20T12:08:10.983Z,1.77
2018-08-20T12:10:43.429Z,1.60
2018-08-20T12:13:14.599Z,1.87
2018-08-20T12:15:45.014Z,1.43
2018-08-20T12:18:15.408Z,2.13
2018-08-20T12:20:45.801Z,1.60
2018-08-20T12:23:16.248Z,2.60
2018-08-20T12:25:46.604Z,2.87
2018-08-20T12:28:18.028Z,2.80
2018-08-20T12:30:50.147Z,2.23
2018-08-20T12:33:20.483Z,2.30
2018-08-20T12:35:54.998Z,2.10
2018-08-20T12:38:25.401Z,2.53
2018-08-20T12:40:56.562Z,3.20
2018-08-20T12:43:29.019Z,4.03
2018-08-20T12:46:00.862Z,4.63
2018-08-20T12:48:32.026Z,5.10
2018-08-20T12:51:03.135Z,5.57
2018-08-20T12:53:33.545Z,4.63
2018-08-20T12:56:04.964Z,4.40
2018-08-20T12:58:35.368Z,4.57
2018-08-20T13:01:06.532Z,4.17
2018-08-20T13:03:36.924Z,4.67
2018-08-20T13:06:07.350Z,4.67
2018-08-20T13:08:37.732Z,4.73
2018-08-20T13:11:12.204Z,4.50
2018-08-20T13:13:43.390Z,4.73
2018-08-20T13:16:13.950Z,4.63
2018-08-20T13:18:44.927Z,5.13
2018-08-20T13:21:16.146Z,5.80
2018-08-20T13:24:07.865Z,5.20
2018-08-20T13:26:38.294Z,5.83
2018-08-20T13:29:08.678Z,5.80
2018-08-20T13:31:39.080Z,5.40
2018-08-20T13:34:10.283Z,5.20
2018-08-20T13:37:00.036Z,5.50
2018-08-20T13:39:30.450Z,5.20
2018-08-20T13:42:00.836Z,5.20
2018-08-20T13:44:31.250Z,4.97
2018-08-20T13:47:01.606Z,4.97
2018-08-20T13:49:31.916Z,4.10
2018-08-20T13:52:02.239Z,4.50
2018-08-20T13:54:32.647Z,3.93
2018-08-20T13:57:24.454Z,3.40
2018-08-20T13:59:54.868Z,3.63
2018-08-20T14:02:25.256Z,3.60
2018-08-20T14:04:55.634Z,3.50
2018-08-20T14:07:25.994Z,3.63
2018-08-20T14:09:56.358Z,3.33
2018-08-20T14:12:27.526Z,3.37
2018-08-20T14:14:57.951Z,3.60
2018-08-20T14:17:28.350Z,3.23
2018-08-20T14:19:59.560Z,3.17
2018-08-20T14:22:29.970Z,3.60
2018-08-20T14:25:19.741Z,3.47
2018-08-20T14:27:53.235Z,3.27
2018-08-20T14:30:23.658Z,3.40
2018-08-20T14:32:54.804Z,2.93
2018-08-20T14:35:25.216Z,3.00
2018-08-20T14:37:55.653Z,3.53
2018-08-20T14:40:26.054Z,3.60
2018-08-20T14:42:57.235Z,3.30
2018-08-20T14:45:27.638Z,3.50
2018-08-20T14:47:58.074Z,3.37
2018-08-20T14:50:28.453Z,3.27
2018-08-20T14:52:58.845Z,3.53
2018-08-20T14:55:31.474Z,3.70
2018-08-20T14:58:01.896Z,3.30
2018-08-20T15:00:32.282Z,3.27
2018-08-20T15:03:02.765Z,3.13
2018-08-20T15:05:33.952Z,3.47
2018-08-20T15:08:05.355Z,3.60
2018-08-20T15:10:35.735Z,3.50
2018-08-20T15:13:25.543Z,3.60
2018-08-20T15:15:55.945Z,3.87
2018-08-20T15:18:26.339Z,3.80
2018-08-20T15:20:56.946Z,3.50
2018-08-20T15:23:27.315Z,3.30
2018-08-20T15:25:57.705Z,3.17
2018-08-20T15:28:28.892Z,3.43
2018-08-20T15:30:59.274Z,3.90
2018-08-20T15:33:30.422Z,3.50
2018-08-20T15:38:48.695Z,3.50
2018-08-20T15:41:19.883Z,3.47
2018-08-20T15:44:12.443Z,3.50
2018-08-20T15:46:42.871Z,3.60
2018-08-20T15:49:13.942Z,3.60
2018-08-20T15:51:44.346Z,3.50
2018-08-20T15:54:14.769Z,3.37
2018-08-20T15:56:45.098Z,3.60
2018-08-20T15:59:15.500Z,3.60
2018-08-20T16:01:52.054Z,3.63
2018-08-20T16:04:22.459Z,3.60
2018-08-20T16:06:53.028Z,3.73
2018-08-20T16:09:23.273Z,3.80
2018-08-20T16:11:53.668Z,3.80
2018-08-20T16:14:24.071Z,3.23
2018-08-20T16:16:54.484Z,3.70
2018-08-20T16:19:25.647Z,3.80
2018-08-20T16:21:56.037Z,3.60
2018-08-20T16:24:26.452Z,3.80
2018-08-20T16:26:56.869Z,3.77
2018-08-20T16:29:47.470Z,3.67
2018-08-20T16:32:17.817Z,4.00
2018-08-20T16:34:48.218Z,4.30
2018-08-20T16:37:24.778Z,4.17
2018-08-20T16:39:55.170Z,4.00
2018-08-20T16:42:26.389Z,4.00
2018-08-20T16:44:56.722Z,4.00
2018-08-20T16:47:27.107Z,3.73
2018-08-20T16:49:57.490Z,3.57
2018-08-20T16:52:28.685Z,4.20
2018-08-20T16:54:59.079Z,3.77
2018-08-20T16:57:29.477Z,3.70
2018-08-20T17:00:00.674Z,4.07
2018-08-20T17:02:38.224Z,3.83
2018-08-20T17:05:08.655Z,3.73
2018-08-20T17:07:39.743Z,3.67
2018-08-20T17:10:29.466Z,4.17
2018-08-20T17:12:59.867Z,4.10
2018-08-20T17:15:30.255Z,4.33
2018-08-20T17:18:00.685Z,3.97
2018-08-20T17:20:31.253Z,3.60
2018-08-20T17:23:01.642Z,3.70
2018-08-20T17:25:32.057Z,3.87
2018-08-20T17:28:02.441Z,3.33
2018-08-20T17:30:32.818Z,3.93
2018-08-20T17:33:03.217Z,4.13
2018-08-20T17:35:33.608Z,3.90
2018-08-20T17:38:04.014Z,3.80
2018-08-20T17:40:35.466Z,4.13
2018-08-20T17:43:08.945Z,3.90
2018-08-20T17:45:39.326Z,3.40
2018-08-20T17:48:09.742Z,3.60
2018-08-20T17:50:40.845Z,3.93
2018-08-20T17:53:11.221Z,4.00
2018-08-20T17:55:41.630Z,4.07
2018-08-20T17:58:12.024Z,3.80
2018-08-20T18:00:42.435Z,3.30
2018-08-20T18:03:13.609Z,3.23
2018-08-20T18:05:44.001Z,3.80
2018-08-20T18:08:15.075Z,3.70
2018-08-20T18:10:45.495Z,4.30
2018-08-20T18:13:15.975Z,3.90
2018-08-20T18:15:46.368Z,3.73
2018-08-20T18:18:20.880Z,4.97
2018-08-20T18:20:51.200Z,4.70
2018-08-20T18:23:21.607Z,4.33
2018-08-20T18:25:52.006Z,4.47
2018-08-20T18:28:22.408Z,4.13
2018-08-20T18:30:52.815Z,3.87
2018-08-20T18:33:25.277Z,3.63
2018-08-20T18:35:55.607Z,3.50
2018-08-20T18:38:25.993Z,4.30
2018-08-20T18:40:56.418Z,3.70
2018-08-20T18:43:26.866Z,3.50
2018-08-20T18:45:57.226Z,3.73
2018-08-20T18:48:27.655Z,3.93
2018-08-20T18:51:01.047Z,3.57
2018-08-20T18:53:32.607Z,3.77
2018-08-20T18:56:03.025Z,3.57
2018-08-20T18:58:35.497Z,3.70
2018-08-20T19:01:05.914Z,3.60
2018-08-20T19:03:37.082Z,3.40
2018-08-20T19:06:07.481Z,3.70
2018-08-20T19:08:37.881Z,3.60
2018-08-20T19:11:08.492Z,3.47
2018-08-20T19:13:38.887Z,3.50
2018-08-20T19:16:09.272Z,3.60
2018-08-20T19:18:39.697Z,3.67
2018-08-20T19:21:10.865Z,4.10
2018-08-20T19:23:41.245Z,3.43
2018-08-20T19:26:11.672Z,3.63
2018-08-20T19:28:42.074Z,3.60
2018-08-20T19:31:16.564Z,3.80
2018-08-20T19:33:46.927Z,3.63
2018-08-20T19:36:19.368Z,3.67
2018-08-20T19:38:50.711Z,3.60
2018-08-20T19:41:21.828Z,3.60
2018-08-20T19:43:52.217Z,3.53
2018-08-20T19:49:11.459Z,3.60
2018-08-20T19:51:42.633Z,4.00
2018-08-20T19:54:13.021Z,3.67
2018-08-20T19:56:43.441Z,3.60
2018-08-20T19:59:13.827Z,3.03
2018-08-20T20:01:44.211Z,3.60
2018-08-20T20:04:15.381Z,3.90
2018-08-20T20:06:46.481Z,3.33
2018-08-20T20:09:16.869Z,3.60
2018-08-20T20:11:47.291Z,3.80
2018-08-20T20:14:17.686Z,3.90
2018-08-20T20:16:48.836Z,3.70
2018-08-20T20:19:19.263Z,3.90
2018-08-20T20:21:50.417Z,3.57
2018-08-20T20:24:20.805Z,3.73
2018-08-20T20:26:51.223Z,3.80
2018-08-20T20:29:21.550Z,3.63
2018-08-20T20:31:51.935Z,3.60
2018-08-20T20:34:23.371Z,3.53
2018-08-20T20:36:53.769Z,3.63
2018-08-20T20:39:24.930Z,3.53
2018-08-20T20:41:56.117Z,3.57
2018-08-20T20:44:48.692Z,3.70
2018-08-20T20:47:19.123Z,3.70
2018-08-20T20:49:49.519Z,3.70
2018-08-20T20:52:41.423Z,3.63
2018-08-20T20:55:11.742Z,4.07
2018-08-20T20:57:42.314Z,3.63
2018-08-20T21:00:12.733Z,4.10
2018-08-20T21:02:45.182Z,3.50
2018-08-20T21:05:15.643Z,3.83
2018-08-20T21:07:46.771Z,3.80
2018-08-20T21:10:20.237Z,3.53
2018-08-20T21:12:50.629Z,3.47
2018-08-20T21:15:21.707Z,3.97
2018-08-20T21:17:52.855Z,3.70
2018-08-20T21:20:24.023Z,4.00
2018-08-20T21:22:55.485Z,4.20
2018-08-20T21:25:33.180Z,3.70
2018-08-20T21:28:03.539Z,3.90
2018-08-20T21:30:33.967Z,3.97
2018-08-20T21:33:11.667Z,3.30
2018-08-20T21:35:42.054Z,3.83
2018-08-20T21:38:15.264Z,3.47
2018-08-20T21:40:45.689Z,3.60
2018-08-20T21:43:16.071Z,3.80
2018-08-20T21:45:46.454Z,3.93
2018-08-20T21:48:17.907Z,3.53
2018-08-20T21:50:48.237Z,3.80
2018-08-20T21:53:18.662Z,3.80
2018-08-20T21:55:51.135Z,4.07
2018-08-20T21:58:22.562Z,4.27
2018-08-20T22:00:53.032Z,4.17
2018-08-20T22:03:23.376Z,4.00
2018-08-20T22:05:54.543Z,4.00
2018-08-20T22:08:24.922Z,3.70
2018-08-20T22:10:55.353Z,3.90
2018-08-20T22:13:25.764Z,4.27
2018-08-20T22:15:56.163Z,3.80
2018-08-20T22:18:32.700Z,3.83
2018-08-20T22:21:03.846Z,3.90
2018-08-20T22:23:39.236Z,4.13
2018-08-20T22:26:06.895Z,3.83
2018-08-20T22:28:39.319Z,3.73
2018-08-20T22:31:10.468Z,3.93
2018-08-20T22:33:42.995Z,3.53
2018-08-20T22:36:14.088Z,4.17
2018-08-20T22:38:45.256Z,4.20
2018-08-20T22:41:15.675Z,4.00
2018-08-20T22:43:46.002Z,4.30
2018-08-20T22:46:16.397Z,4.00
2018-08-20T22:48:46.814Z,3.67
2018-08-20T22:51:17.226Z,4.03
2018-08-20T22:53:47.637Z,3.53
2018-08-20T22:56:20.118Z,3.60
2018-08-20T22:58:50.513Z,3.33
2018-08-20T23:01:20.915Z,3.83
2018-08-20T23:03:52.040Z,3.53
2018-08-20T23:06:22.429Z,3.60
2018-08-20T23:08:52.819Z,3.93
2018-08-20T23:11:23.938Z,3.47
2018-08-20T23:13:54.324Z,3.77
2018-08-20T23:16:24.728Z,3.93
2018-08-20T23:18:55.153Z,3.60
2018-08-20T23:21:25.548Z,3.67
2018-08-20T23:23:55.874Z,4.00
2018-08-20T23:26:28.508Z,3.63
2018-08-20T23:29:03.946Z,3.80
2018-08-20T23:31:35.387Z,3.80
2018-08-20T23:34:05.801Z,3.80
2018-08-20T23:36:37.141Z,3.27
2018-08-20T23:39:08.322Z,3.90
2018-08-20T23:41:43.821Z,3.70
2018-08-20T23:44:15.296Z,3.67
2018-08-20T23:46:45.691Z,4.00
2018-08-20T23:49:16.074Z,3.97
2018-08-20T23:51:53.651Z,3.77
2018-08-20T23:54:24.043Z,3.67
2018-08-20T23:56:54.435Z,3.80
2018-08-20T23:59:44.215Z,4.00
